This is the latest recevied weather packets stored in our database for station/object KC1OEK-13. If no packets are shown the sender has not sent any weather packets the latest 10 day(s).
| Time | Temp. | Humidity | Pressure | Rain* | Wind** | Luminosity | Snow |
|---|---|---|---|---|---|---|---|
| 1787607921 | 25.56° C | 63% | 1015.4 hPa | 0 mm | - | 110 W/m² | - |
| 1787607617 | 26.11° C | 59% | 1015.2 hPa | 0 mm | - | 117 W/m² | - |
| 1787607313 | 25.56° C | 61% | 1015.4 hPa | 0 mm | - | 234 W/m² | - |
| 1787607010 | 25.56° C | 61% | 1015.3 hPa | 0 mm | - | 237 W/m² | - |
| 1787606708 | 25° C | 64% | 1015.3 hPa | 0 mm | - | 262 W/m² | - |
| 1787606402 | 25° C | 60% | 1015.3 hPa | 0 mm | - | 129 W/m² | - |
| 1787606097 | 25.56° C | 61% | 1015.3 hPa | 0 mm | - | 144 W/m² | - |
| 1787605796 | 24.44° C | 66% | 1015.3 hPa | 0 mm | - | 113 W/m² | - |
| 1787605491 | 25° C | 61% | 1015.2 hPa | 0 mm | - | 108 W/m² | - |
| 1787605187 | 25° C | 62% | 1015 hPa | 0 mm | - | 131 W/m² | - |
| 1787604885 | 25.56° C | 60% | 1015.2 hPa | 0 mm | - | 97 W/m² | - |
| 1787604580 | 25.56° C | 56% | 1015 hPa | 0 mm | - | 111 W/m² | - |
| 1787604275 | 26.67° C | 56% | 1015.2 hPa | 0 mm | - | 130 W/m² | - |
| 1787603970 | 25.56° C | 58% | 1014.9 hPa | 0 mm | - | 392 W/m² | - |
| 1787603669 | 25° C | 63% | 1015.1 hPa | 0 mm | - | 460 W/m² | - |
| 1787603365 | 25° C | 62% | 1015.3 hPa | 0 mm | - | 123 W/m² | - |
| 1787603061 | 25.56° C | 60% | 1015.2 hPa | 0 mm | - | 104 W/m² | - |
| 1787602758 | 26.11° C | 56% | 1015.2 hPa | 0 mm | - | 340 W/m² | - |
| 1787602457 | 25.56° C | 55% | 1015 hPa | 0 mm | - | 132 W/m² | - |
| 1787602152 | 26.67° C | 54% | 1015.1 hPa | 0 mm | - | 178 W/m² | - |
| 1787601850 | 26.11° C | 57% | 1014.9 hPa | 0 mm | - | 525 W/m² | - |
| 1787601546 | 25.56° C | 58% | 1015 hPa | 0 mm | - | 539 W/m² | - |
| 1787601241 | 26.11° C | 55% | 1015 hPa | 0 mm | - | 179 W/m² | - |
| 1787600940 | 26.11° C | 56% | 1015 hPa | 0 mm | - | 538 W/m² | - |
| 1787600635 | 26.67° C | 53% | 1015.1 hPa | 0 mm | - | 531 W/m² | - |
* Rain latest hour (hover to see other rain measurements)
** Current wind speed in m/s (hover to see current wind gust speed)